Time;durP1;ratioP1;P1;durP2;ratioP2;P2;SDS_P1;SDS_P2;PMS_P1;PMS_P2;Temp;Humidity;BMP_temperature;BMP_pressure;BME280_temperature;BME280_humidity;BME280_pressure;Samples;Min_cycle;Max_cycle;Signal;HPM_P1;HPM_P2
2023/10/21 00:01:00;;;;;;;1.67;1.10;;;;;15.80;95596.00;;;;5032564;28;20041;-65
2023/10/21 00:03:26;;;;;;;1.60;0.93;;;;;15.80;95594.00;;;;5030967;28;20159;-65
2023/10/21 00:05:53;;;;;;;0.70;0.70;;;;;15.70;95609.00;;;;5031007;28;20045;-65
2023/10/21 00:08:20;;;;;;;0.80;0.80;;;;;15.70;95605.00;;;;5032236;28;20146;-65
2023/10/21 00:10:47;;;;;;;2.28;1.17;;;;;15.60;95600.00;;;;5032587;28;20069;-67
2023/10/21 00:13:13;;;;;;;1.80;0.77;;;;;15.60;95602.00;;;;5032312;28;20079;-64
2023/10/21 00:15:40;;;;;;;1.33;0.90;;;;;15.60;95604.00;;;;5031723;28;20513;-64
2023/10/21 00:18:07;;;;;;;0.70;0.70;;;;;15.60;95599.00;;;;5032301;28;20045;-65
2023/10/21 00:20:33;;;;;;;0.75;0.73;;;;;15.60;95618.00;;;;5031698;28;20045;-65
2023/10/21 00:23:00;;;;;;;0.70;0.70;;;;;15.60;95618.00;;;;5031461;28;20046;-65
2023/10/21 00:25:28;;;;;;;2.83;1.00;;;;;15.50;95611.00;;;;5031115;28;20080;-64
2023/10/21 00:27:55;;;;;;;0.75;0.60;;;;;15.40;95623.00;;;;5033814;28;20414;-66
2023/10/21 00:30:23;;;;;;;2.67;1.20;;;;;15.40;95626.00;;;;5032394;28;20140;-65
2023/10/21 00:32:49;;;;;;;0.82;0.60;;;;;15.30;95626.00;;;;5034046;28;20469;-65
2023/10/21 00:35:16;;;;;;;0.65;0.65;;;;;15.30;95626.00;;;;5036045;28;20053;-65
2023/10/21 00:37:43;;;;;;;0.50;0.45;;;;;15.20;95629.00;;;;5030883;28;20144;-65
2023/10/21 00:40:10;;;;;;;0.50;0.43;;;;;15.20;95644.00;;;;5030816;28;20045;-65
2023/10/21 00:42:37;;;;;;;0.60;0.40;;;;;15.10;95649.00;;;;5032132;28;20045;-65
2023/10/21 00:45:04;;;;;;;3.05;0.40;;;;;15.10;95650.00;;;;5034515;28;20077;-65
2023/10/21 00:47:30;;;;;;;1.88;0.40;;;;;15.10;95663.00;;;;5041624;28;20124;-65
2023/10/21 00:49:57;;;;;;;2.97;1.35;;;;;15.10;95654.00;;;;5028826;28;20061;-65
2023/10/21 00:52:25;;;;;;;1.08;0.50;;;;;15.10;95681.00;;;;5044813;28;20113;-65
2023/10/21 00:54:54;;;;;;;0.50;0.30;;;;;15.00;95676.00;;;;5029745;28;20053;-65
2023/10/21 00:57:20;;;;;;;1.98;0.50;;;;;15.00;95678.00;;;;5046669;28;20069;-67
2023/10/21 00:59:47;;;;;;;1.38;0.55;;;;;15.00;95691.00;;;;5024453;28;20042;-67
2023/10/21 01:02:15;;;;;;;0.95;0.40;;;;;14.90;95692.00;;;;5042108;28;20034;-66
2023/10/21 01:04:41;;;;;;;2.42;0.63;;;;;14.90;95701.00;;;;5035938;28;20087;-67
2023/10/21 01:07:16;;;;;;;0.47;0.47;;;;;14.90;95710.00;;;;5036634;28;20068;-67
2023/10/21 01:09:43;;;;;;;0.32;0.30;;;;;14.90;95735.00;;;;5039703;28;20052;-66
2023/10/21 01:12:10;;;;;;;0.60;0.28;;;;;14.90;95744.00;;;;5041663;28;20038;-66
2023/10/21 01:14:37;;;;;;;0.50;0.30;;;;;14.80;95734.00;;;;5021719;28;20049;-66
2023/10/21 01:17:04;;;;;;;0.20;0.20;;;;;14.70;95751.00;;;;5037972;28;20060;-66
2023/10/21 01:19:32;;;;;;;1.58;0.68;;;;;14.70;95774.00;;;;5048219;28;20045;-66
2023/10/21 01:21:58;;;;;;;2.95;2.08;;;;;14.70;95772.00;;;;5049946;28;20046;-65
2023/10/21 01:24:25;;;;;;;0.30;0.30;;;;;14.70;95780.00;;;;5046893;28;20060;-66
2023/10/21 01:26:52;;;;;;;0.43;0.30;;;;;14.70;95792.00;;;;5046818;28;20067;-65
2023/10/21 01:29:18;;;;;;;0.28;0.28;;;;;14.60;95788.00;;;;5042532;28;20049;-66
2023/10/21 01:31:45;;;;;;;0.20;0.20;;;;;14.60;95799.00;;;;5039668;28;20056;-66
2023/10/21 01:34:12;;;;;;;0.40;0.40;;;;;14.60;95816.00;;;;5039059;28;20123;-66
2023/10/21 01:36:39;;;;;;;1.45;0.30;;;;;14.60;95803.00;;;;5022960;28;20565;-65
2023/10/21 01:39:10;;;;;;;0.43;0.30;;;;;14.60;95822.00;;;;5041241;28;20052;-65
2023/10/21 01:41:38;;;;;;;0.98;0.30;;;;;14.60;95830.00;;;;5041385;28;20041;-66
2023/10/21 01:44:05;;;;;;;0.57;0.40;;;;;14.60;95837.00;;;;5045624;28;20065;-65
2023/10/21 01:46:32;;;;;;;0.55;0.50;;;;;14.60;95848.00;;;;5047411;28;20049;-65
2023/10/21 01:48:58;;;;;;;0.52;0.30;;;;;14.60;95842.00;;;;5023357;28;20084;-66
2023/10/21 01:51:25;;;;;;;0.35;0.32;;;;;14.60;95856.00;;;;5043290;28;20041;-66
2023/10/21 01:53:52;;;;;;;0.50;0.50;;;;;14.60;95862.00;;;;5052613;28;20050;-65
2023/10/21 01:56:18;;;;;;;0.90;0.30;;;;;14.70;95871.00;;;;5053413;28;20056;-65
2023/10/21 01:58:45;;;;;;;0.60;0.50;;;;;14.70;95886.00;;;;5049379;28;20057;-67
2023/10/21 02:01:12;;;;;;;1.02;0.50;;;;;14.60;95882.00;;;;5034021;28;20046;-67
2023/10/21 02:03:41;;;;;;;0.30;0.30;;;;;14.60;95889.00;;;;5032831;28;20140;-67
2023/10/21 02:06:08;;;;;;;0.40;0.40;;;;;14.60;95902.00;;;;5033754;28;20387;-67
2023/10/21 02:08:35;;;;;;;0.40;0.40;;;;;14.60;95909.00;;;;5034707;28;20049;-68
2023/10/21 02:11:02;;;;;;;1.08;0.50;;;;;14.60;95908.00;;;;5033193;28;20507;-67
2023/10/21 02:13:28;;;;;;;1.88;0.65;;;;;14.70;95913.00;;;;5032796;28;20075;-67
2023/10/21 02:15:55;;;;;;;0.50;0.50;;;;;14.70;95922.00;;;;5033264;28;20532;-67
2023/10/21 02:18:22;;;;;;;0.55;0.50;;;;;14.80;95921.00;;;;5044353;28;20467;-66
2023/10/21 02:20:49;;;;;;;1.35;0.50;;;;;14.80;95940.00;;;;5036526;28;20137;-68
2023/10/21 02:23:16;;;;;;;0.50;0.50;;;;;14.80;95952.00;;;;5038189;28;20037;-67
2023/10/21 02:25:43;;;;;;;1.08;0.60;;;;;14.80;95958.00;;;;5026468;28;20076;-67
2023/10/21 02:28:10;;;;;;;1.00;0.68;;;;;14.70;95960.00;;;;5034616;28;20077;-67
2023/10/21 02:30:36;;;;;;;1.30;0.70;;;;;14.70;95957.00;;;;5035558;28;20517;-66
2023/10/21 02:33:03;;;;;;;1.05;0.65;;;;;14.60;95981.00;;;;5033903;28;20124;-67
2023/10/21 02:35:34;;;;;;;1.35;0.55;;;;;14.60;95978.00;;;;5033101;28;20061;-67
2023/10/21 02:38:00;;;;;;;0.75;0.75;;;;;14.60;95984.00;;;;5033400;28;20118;-67
2023/10/21 02:40:27;;;;;;;0.88;0.70;;;;;14.60;95995.00;;;;5034565;28;20483;-67
2023/10/21 02:42:55;;;;;;;0.60;0.60;;;;;14.70;96001.00;;;;5035004;28;20066;-67
2023/10/21 02:45:23;;;;;;;0.80;0.60;;;;;14.70;96014.00;;;;5033844;28;20076;-67
2023/10/21 02:47:51;;;;;;;0.50;0.50;;;;;14.60;96013.00;;;;5032785;28;20041;-66
2023/10/21 02:50:18;;;;;;;1.33;0.68;;;;;14.60;96018.00;;;;5032628;28;20049;-66
2023/10/21 02:52:45;;;;;;;1.42;0.80;;;;;14.60;96016.00;;;;5033881;28;20038;-66
2023/10/21 02:55:14;;;;;;;1.42;0.70;;;;;14.70;96035.00;;;;5031851;28;20136;-65
2023/10/21 02:57:41;;;;;;;2.10;0.70;;;;;14.70;96041.00;;;;5033553;28;20081;-66
2023/10/21 03:00:10;;;;;;;0.60;0.60;;;;;14.70;96042.00;;;;5032576;28;20049;-66
2023/10/21 03:02:38;;;;;;;1.48;0.70;;;;;14.70;96042.00;;;;5032206;28;20041;-66
2023/10/21 03:05:05;;;;;;;0.63;0.60;;;;;14.80;96061.00;;;;5031485;28;20411;-66
2023/10/21 03:07:31;;;;;;;0.70;0.70;;;;;14.80;96070.00;;;;5031992;28;20057;-65
2023/10/21 03:09:59;;;;;;;2.30;0.63;;;;;14.80;96055.00;;;;5031913;28;20404;-66
2023/10/21 03:12:26;;;;;;;1.02;0.60;;;;;14.70;96062.00;;;;5033374;28;20041;-66
2023/10/21 03:14:53;;;;;;;0.60;0.60;;;;;14.80;96074.00;;;;5032744;28;20506;-66
2023/10/21 03:17:19;;;;;;;1.67;0.70;;;;;14.80;96073.00;;;;5031397;28;20053;-66
2023/10/21 03:19:46;;;;;;;0.80;0.80;;;;;14.90;96082.00;;;;5033042;28;20056;-65
2023/10/21 03:22:13;;;;;;;0.70;0.70;;;;;14.80;96095.00;;;;5033203;28;20037;-67
2023/10/21 03:24:39;;;;;;;0.80;0.75;;;;;14.80;96092.00;;;;5014636;28;20057;-66
2023/10/21 03:27:06;;;;;;;1.25;0.90;;;;;14.90;96102.00;;;;5032755;28;20053;-66
2023/10/21 03:29:33;;;;;;;2.63;0.90;;;;;14.90;96115.00;;;;5032865;28;20490;-67
2023/10/21 03:32:00;;;;;;;2.20;0.80;;;;;14.90;96110.00;;;;5032772;28;20494;-67
2023/10/21 03:34:27;;;;;;;0.73;0.73;;;;;14.90;96120.00;;;;5032163;28;20052;-66
2023/10/21 03:36:53;;;;;;;0.73;0.73;;;;;14.90;96122.00;;;;5032697;28;20554;-66
2023/10/21 03:39:21;;;;;;;1.08;0.73;;;;;14.90;96131.00;;;;5032656;28;20037;-66
2023/10/21 03:41:48;;;;;;;1.30;0.60;;;;;14.90;96140.00;;;;5031386;28;20136;-66
2023/10/21 03:44:14;;;;;;;0.85;0.68;;;;;14.90;96135.00;;;;5031961;28;20046;-66
2023/10/21 03:46:42;;;;;;;1.83;0.57;;;;;14.80;96140.00;;;;5032462;28;20034;-66
2023/10/21 03:49:09;;;;;;;0.82;0.70;;;;;14.90;96156.00;;;;5032445;28;20049;-66
2023/10/21 03:51:36;;;;;;;0.98;0.60;;;;;14.90;96158.00;;;;5030844;28;20187;-67
2023/10/21 03:54:04;;;;;;;0.98;0.50;;;;;14.90;96163.00;;;;5014222;28;20051;-67
2023/10/21 03:56:30;;;;;;;1.35;0.77;;;;;14.90;96167.00;;;;5031216;28;20092;-67
2023/10/21 03:58:57;;;;;;;0.55;0.52;;;;;14.90;96172.00;;;;5030881;28;20132;-66
2023/10/21 04:01:23;;;;;;;1.60;0.60;;;;;14.90;96178.00;;;;5030828;28;20491;-66
2023/10/21 04:03:50;;;;;;;0.40;0.40;;;;;14.90;96180.00;;;;5030494;28;20052;-67
2023/10/21 04:06:18;;;;;;;3.53;0.70;;;;;14.90;96188.00;;;;5032441;28;20091;-66
2023/10/21 04:08:46;;;;;;;1.75;0.75;;;;;14.90;96197.00;;;;5032159;28;20486;-66
2023/10/21 04:11:12;;;;;;;0.68;0.60;;;;;14.90;96189.00;;;;5032141;28;20506;-67
2023/10/21 04:13:39;;;;;;;1.55;0.70;;;;;14.90;96208.00;;;;5032062;28;20041;-66
2023/10/21 04:16:06;;;;;;;1.23;0.63;;;;;14.90;96210.00;;;;5032689;28;20497;-66
2023/10/21 04:18:33;;;;;;;1.98;0.80;;;;;14.90;96209.00;;;;5032161;28;20401;-67
2023/10/21 04:20:59;;;;;;;1.40;0.60;;;;;14.90;96214.00;;;;5030822;28;20100;-65
2023/10/21 04:23:26;;;;;;;1.27;0.60;;;;;14.90;96220.00;;;;5031958;28;20041;-66
2023/10/21 04:25:52;;;;;;;1.65;0.60;;;;;14.90;96223.00;;;;5032001;28;20128;-66
2023/10/21 04:28:19;;;;;;;0.50;0.50;;;;;14.80;96227.00;;;;5032042;28;20124;-66
2023/10/21 04:30:46;;;;;;;0.60;0.60;;;;;14.80;96234.00;;;;5032332;28;20077;-65
2023/10/21 04:33:13;;;;;;;0.68;0.57;;;;;14.80;96247.00;;;;5032093;28;20042;-65
2023/10/21 04:35:40;;;;;;;0.63;0.60;;;;;14.90;96251.00;;;;5031865;28;20072;-65
2023/10/21 04:38:09;;;;;;;0.68;0.47;;;;;14.90;96258.00;;;;5030744;28;20080;-65
2023/10/21 04:40:36;;;;;;;0.50;0.50;;;;;14.80;96261.00;;;;5030817;28;20054;-65
2023/10/21 04:43:03;;;;;;;0.50;0.50;;;;;14.70;96271.00;;;;5030799;28;20552;-65
2023/10/21 04:45:30;;;;;;;1.10;0.43;;;;;14.70;96268.00;;;;5031349;28;20046;-66
2023/10/21 04:47:57;;;;;;;0.50;0.50;;;;;14.70;96273.00;;;;5032257;28;20056;-65
2023/10/21 04:50:23;;;;;;;1.25;0.55;;;;;14.70;96284.00;;;;5032448;28;20116;-65
2023/10/21 04:52:53;;;;;;;1.63;0.50;;;;;14.70;96288.00;;;;5032000;28;20046;-65
2023/10/21 04:55:21;;;;;;;0.50;0.50;;;;;14.70;96293.00;;;;5031810;28;20050;-65
2023/10/21 04:57:47;;;;;;;1.08;0.75;;;;;14.70;96295.00;;;;5031837;28;20083;-65
2023/10/21 05:00:14;;;;;;;1.85;0.70;;;;;14.80;96299.00;;;;5032055;28;20486;-65
2023/10/21 05:02:41;;;;;;;0.82;0.47;;;;;14.70;96298.00;;;;5031746;28;20048;-65
2023/10/21 05:05:09;;;;;;;0.60;0.60;;;;;14.60;96298.00;;;;5033507;28;20047;-66
2023/10/21 05:07:35;;;;;;;1.02;0.60;;;;;14.60;96307.00;;;;5035667;28;20077;-66
2023/10/21 05:10:04;;;;;;;0.77;0.50;;;;;14.60;96309.00;;;;5035483;28;20087;-66
2023/10/21 05:12:31;;;;;;;0.70;0.50;;;;;14.60;96317.00;;;;5035363;28;20100;-66
2023/10/21 05:14:57;;;;;;;1.75;0.68;;;;;14.60;96325.00;;;;5034859;28;20048;-65
2023/10/21 05:17:24;;;;;;;2.08;1.00;;;;;14.60;96333.00;;;;5033957;28;20052;-65
2023/10/21 05:19:51;;;;;;;0.52;0.50;;;;;14.50;96337.00;;;;5035492;28;20046;-66
2023/10/21 05:22:17;;;;;;;0.60;0.60;;;;;14.50;96351.00;;;;5035346;28;20065;-65
2023/10/21 05:24:44;;;;;;;0.93;0.52;;;;;14.40;96358.00;;;;5034805;28;20041;-65
2023/10/21 05:27:10;;;;;;;1.38;0.60;;;;;14.50;96368.00;;;;5033893;28;20065;-65
2023/10/21 05:29:37;;;;;;;1.75;0.70;;;;;14.50;96383.00;;;;5033853;28;20046;-65
2023/10/21 05:32:03;;;;;;;2.90;0.60;;;;;14.50;96385.00;;;;5035170;28;20107;-66
2023/10/21 05:34:30;;;;;;;0.43;0.43;;;;;14.40;96391.00;;;;5034403;28;20080;-65
2023/10/21 05:36:57;;;;;;;0.52;0.50;;;;;14.40;96406.00;;;;5035600;28;20049;-65
2023/10/21 05:39:23;;;;;;;0.98;0.47;;;;;14.30;96402.00;;;;5034066;28;20508;-67
2023/10/21 05:41:51;;;;;;;0.85;0.50;;;;;14.30;96408.00;;;;5034847;28;20052;-67
2023/10/21 05:44:18;;;;;;;1.92;0.50;;;;;14.20;96422.00;;;;5034402;28;20064;-67
2023/10/21 05:46:52;;;;;;;2.92;0.50;;;;;14.20;96431.00;;;;5033639;28;20111;-66
2023/10/21 05:49:19;;;;;;;0.60;0.60;;;;;14.20;96437.00;;;;5035032;28;20060;-67
2023/10/21 05:51:46;;;;;;;0.57;0.57;;;;;14.20;96435.00;;;;5034894;28;20379;-67
2023/10/21 05:54:12;;;;;;;0.40;0.40;;;;;14.10;96448.00;;;;5035077;28;20073;-66
2023/10/21 05:56:39;;;;;;;1.23;0.40;;;;;14.10;96458.00;;;;5043047;28;20051;-65
2023/10/21 05:59:05;;;;;;;2.22;0.55;;;;;14.10;96452.00;;;;5037362;28;20439;-65
2023/10/21 06:01:32;;;;;;;11.07;1.75;;;;;14.10;96456.00;;;;5035591;28;20535;-65
2023/10/21 06:03:59;;;;;;;0.80;0.55;;;;;14.10;96463.00;;;;5034472;28;20491;-65
2023/10/21 06:06:25;;;;;;;1.52;0.98;;;;;14.10;96476.00;;;;5034969;28;20053;-65
2023/10/21 06:08:52;;;;;;;1.17;1.05;;;;;14.10;96491.00;;;;5034857;28;20045;-65
2023/10/21 06:11:19;;;;;;;0.88;0.60;;;;;14.20;96498.00;;;;5034543;28;20046;-65
2023/10/21 06:13:47;;;;;;;1.13;0.82;;;;;14.20;96499.00;;;;5034183;28;20041;-65
2023/10/21 06:16:13;;;;;;;2.28;0.90;;;;;14.20;96508.00;;;;5034173;28;20045;-65
2023/10/21 06:18:40;;;;;;;0.90;0.63;;;;;14.20;96518.00;;;;5034627;28;20049;-66
2023/10/21 06:21:07;;;;;;;1.88;0.70;;;;;14.30;96505.00;;;;5034683;28;20037;-65
2023/10/21 06:23:33;;;;;;;1.27;0.73;;;;;14.30;96521.00;;;;5047367;28;20038;-66
2023/10/21 06:26:00;;;;;;;2.20;0.50;;;;;14.40;96525.00;;;;5050995;28;20069;-65
2023/10/21 06:28:27;;;;;;;1.60;0.55;;;;;14.40;96535.00;;;;5047713;28;20057;-65
2023/10/21 06:30:57;;;;;;;1.63;0.50;;;;;14.40;96552.00;;;;5047237;28;20505;-66
2023/10/21 06:33:24;;;;;;;1.30;0.50;;;;;14.40;96537.00;;;;5045284;28;20049;-65
2023/10/21 06:35:51;;;;;;;0.57;0.55;;;;;14.40;96550.00;;;;5047012;28;20049;-64
2023/10/21 06:38:18;;;;;;;1.48;0.70;;;;;14.40;96553.00;;;;5048301;28;20050;-65
2023/10/21 06:40:44;;;;;;;1.20;0.65;;;;;14.40;96552.00;;;;5049647;28;20049;-65
2023/10/21 06:43:31;;;;;;;1.13;0.80;;;;;14.40;96562.00;;;;5048726;28;20052;-64
2023/10/21 06:45:57;;;;;;;4.10;0.88;;;;;14.40;96569.00;;;;5048037;28;20045;-66
2023/10/21 06:48:24;;;;;;;0.50;0.50;;;;;14.40;96579.00;;;;5038366;28;20570;-66
2023/10/21 06:50:51;;;;;;;2.25;0.70;;;;;14.40;96584.00;;;;5033974;28;20046;-66
2023/10/21 06:53:17;;;;;;;1.17;0.65;;;;;14.40;96587.00;;;;5034906;28;20072;-66
2023/10/21 06:55:44;;;;;;;2.08;0.82;;;;;14.40;96591.00;;;;5032372;28;20054;-66
2023/10/21 06:58:12;;;;;;;1.13;0.98;;;;;14.50;96601.00;;;;5033681;28;20557;-66
2023/10/21 07:00:39;;;;;;;1.13;1.02;;;;;14.50;96612.00;;;;5033486;28;20049;-67
2023/10/21 07:03:06;;;;;;;2.55;1.08;;;;;14.60;96609.00;;;;5032483;28;20045;-66
2023/10/21 07:05:34;;;;;;;1.60;1.20;;;;;14.60;96628.00;;;;5031909;28;20049;-64
2023/10/21 07:08:01;;;;;;;1.58;0.80;;;;;14.60;96627.00;;;;5033695;28;20046;-66
2023/10/21 07:10:29;;;;;;;2.17;1.00;;;;;14.60;96632.00;;;;5033086;28;20033;-67
2023/10/21 07:13:00;;;;;;;0.85;0.80;;;;;14.60;96637.00;;;;5032692;28;20054;-66
2023/10/21 07:15:33;;;;;;;2.78;0.70;;;;;14.60;96635.00;;;;5031998;28;20049;-66
2023/10/21 07:18:00;;;;;;;0.90;0.68;;;;;14.50;96642.00;;;;5033044;28;20048;-65
2023/10/21 07:20:27;;;;;;;1.00;0.63;;;;;14.50;96647.00;;;;5035242;28;20140;-65
2023/10/21 07:22:54;;;;;;;1.88;0.80;;;;;14.50;96650.00;;;;5034875;28;20056;-65
2023/10/21 07:25:23;;;;;;;6.63;1.13;;;;;14.50;96652.00;;;;5032265;28;20049;-65
2023/10/21 07:27:51;;;;;;;1.63;0.85;;;;;14.60;96659.00;;;;5033523;28;20083;-66
2023/10/21 07:30:18;;;;;;;1.92;0.68;;;;;14.60;96669.00;;;;5034813;28;20128;-65
2023/10/21 07:32:45;;;;;;;1.45;1.02;;;;;14.60;96677.00;;;;5035568;28;20033;-66
2023/10/21 07:35:11;;;;;;;1.42;1.00;;;;;14.60;96682.00;;;;5033106;28;20049;-64
2023/10/21 07:37:38;;;;;;;3.03;1.08;;;;;14.60;96686.00;;;;5034618;28;20129;-66
2023/10/21 07:40:06;;;;;;;2.97;0.70;;;;;14.70;96682.00;;;;5033891;28;20139;-67
2023/10/21 07:42:33;;;;;;;1.67;0.90;;;;;14.70;96687.00;;;;5019339;28;20081;-66
2023/10/21 07:45:00;;;;;;;1.98;0.77;;;;;14.70;96700.00;;;;5034292;28;20422;-66
2023/10/21 07:47:28;;;;;;;3.03;1.40;;;;;14.70;96697.00;;;;5043665;28;20053;-66
2023/10/21 07:49:54;;;;;;;2.55;1.17;;;;;14.80;96706.00;;;;5032680;28;20100;-66
2023/10/21 07:52:22;;;;;;;0.77;0.70;;;;;14.90;96695.00;;;;5032434;28;20096;-65
2023/10/21 07:54:49;;;;;;;1.35;0.80;;;;;14.90;96710.00;;;;5030874;28;20091;-65
2023/10/21 07:57:16;;;;;;;2.15;0.80;;;;;15.00;96706.00;;;;5032748;28;20045;-66
2023/10/21 07:59:44;;;;;;;4.68;0.82;;;;;15.00;96719.00;;;;5032517;28;20045;-66
2023/10/21 08:02:10;;;;;;;2.38;1.17;;;;;15.00;96710.00;;;;5032807;28;20060;-66
2023/10/21 08:04:37;;;;;;;4.13;1.08;;;;;15.10;96716.00;;;;5032178;28;20065;-65
2023/10/21 08:07:04;;;;;;;3.28;1.33;;;;;15.20;96708.00;;;;5032503;28;20045;-66
2023/10/21 08:09:31;;;;;;;3.65;1.10;;;;;15.20;96718.00;;;;5032538;28;20048;-67
2023/10/21 08:11:58;;;;;;;6.78;1.88;;;;;15.20;96711.00;;;;5015111;28;20053;-68
2023/10/21 08:14:27;;;;;;;4.90;1.55;;;;;15.30;96712.00;;;;5032049;28;20046;-66
2023/10/21 08:16:53;;;;;;;3.30;1.30;;;;;15.30;96721.00;;;;5031050;28;20095;-67
2023/10/21 08:19:20;;;;;;;2.55;0.95;;;;;15.30;96721.00;;;;5032837;28;20038;-67
2023/10/21 08:21:47;;;;;;;4.00;0.90;;;;;15.50;96721.00;;;;5031068;28;20041;-66
2023/10/21 08:24:13;;;;;;;2.22;0.70;;;;;15.60;96739.00;;;;5014109;28;20045;-70
2023/10/21 08:26:40;;;;;;;2.70;0.85;;;;;15.70;96741.00;;;;5014617;28;20095;-67
2023/10/21 08:29:10;;;;;;;2.45;0.80;;;;;15.80;96747.00;;;;5031913;28;20406;-66
2023/10/21 08:31:36;;;;;;;2.95;1.08;;;;;15.90;96742.00;;;;5030884;28;20059;-65
2023/10/21 08:34:03;;;;;;;1.30;0.90;;;;;16.00;96748.00;;;;5031495;28;20528;-65
2023/10/21 08:36:29;;;;;;;2.63;0.90;;;;;15.90;96753.00;;;;5031905;28;20075;-66
2023/10/21 08:38:56;;;;;;;1.45;0.75;;;;;15.90;96755.00;;;;5033001;28;20095;-66
2023/10/21 08:41:23;;;;;;;9.05;5.80;;;;;15.90;96763.00;;;;5018810;28;20046;-67
2023/10/21 08:43:50;;;;;;;2.40;1.30;;;;;15.90;96762.00;;;;5034600;28;20052;-65
2023/10/21 08:46:17;;;;;;;4.03;1.33;;;;;15.90;96773.00;;;;5018264;28;20111;-65
2023/10/21 08:48:47;;;;;;;3.05;1.70;;;;;16.00;96774.00;;;;5035935;28;20494;-66
2023/10/21 08:51:20;;;;;;;1.40;0.80;;;;;16.00;96789.00;;;;5035809;28;20037;-66
2023/10/21 08:53:49;;;;;;;3.35;0.93;;;;;16.00;96792.00;;;;5035179;28;20045;-65
2023/10/21 08:56:16;;;;;;;3.88;0.93;;;;;16.00;96787.00;;;;5035854;28;20065;-66
2023/10/21 08:58:43;;;;;;;3.03;1.10;;;;;15.90;96801.00;;;;5035717;28;20112;-67
2023/10/21 09:01:11;;;;;;;1.52;0.70;;;;;15.90;96795.00;;;;5034820;28;20052;-66
2023/10/21 09:03:38;;;;;;;1.65;0.77;;;;;15.90;96800.00;;;;5034005;28;20042;-65
2023/10/21 09:06:13;;;;;;;3.28;0.80;;;;;15.90;96802.00;;;;5018006;28;20046;-66
2023/10/21 09:08:41;;;;;;;4.55;1.38;;;;;15.90;96802.00;;;;5034519;28;20054;-66
2023/10/21 09:11:10;;;;;;;5.65;1.85;;;;;16.00;96807.00;;;;5036075;28;20442;-67
2023/10/21 09:13:39;;;;;;;1.67;1.25;;;;;16.20;96818.00;;;;5033796;28;20498;-66
2023/10/21 09:16:21;;;;;;;3.90;1.25;;;;;16.30;96817.00;;;;5034155;28;20052;-66
2023/10/21 09:19:03;;;;;;;2.85;1.15;;;;;16.40;96810.00;;;;5034018;28;20034;-67
2023/10/21 09:21:41;;;;;;;4.95;1.17;;;;;16.50;96816.00;;;;5034263;28;20071;-67
2023/10/21 09:24:20;;;;;;;4.75;0.93;;;;;16.60;96813.00;;;;5017132;28;20045;-67
2023/10/21 09:26:48;;;;;;;4.40;1.83;;;;;16.60;96810.00;;;;5017753;28;20080;-67
2023/10/21 09:29:19;;;;;;;4.22;2.30;;;;;16.60;96811.00;;;;5033931;28;20064;-64
2023/10/21 09:31:53;;;;;;;4.00;1.55;;;;;16.60;96814.00;;;;5034041;28;20145;-66
2023/10/21 09:34:27;;;;;;;3.42;0.95;;;;;16.60;96819.00;;;;5016742;28;20046;-66
2023/10/21 09:36:55;;;;;;;5.43;1.77;;;;;16.70;96810.00;;;;5035092;28;20063;-65
2023/10/21 09:39:25;;;;;;;3.72;1.77;;;;;16.90;96820.00;;;;5033966;28;20517;-67
2023/10/21 09:41:52;;;;;;;2.97;1.25;;;;;17.00;96827.00;;;;5033841;28;20521;-66
2023/10/21 09:44:19;;;;;;;3.42;1.83;;;;;17.30;96818.00;;;;5034634;28;20431;-67
2023/10/21 09:46:47;;;;;;;4.20;1.38;;;;;17.30;96834.00;;;;5035155;28;20044;-66
2023/10/21 09:49:15;;;;;;;6.68;1.88;;;;;17.40;96821.00;;;;5034792;28;20132;-67
2023/10/21 09:52:09;;;;;;;4.72;1.30;;;;;17.60;96828.00;;;;5033231;28;20056;-69
2023/10/21 09:54:42;;;;;;;2.25;1.17;;;;;17.50;96835.00;;;;5034816;28;20053;-66
2023/10/21 09:57:12;;;;;;;3.25;1.10;;;;;17.50;96840.00;;;;5018572;28;20140;-71
2023/10/21 09:59:40;;;;;;;4.03;1.20;;;;;17.50;96845.00;;;;5033791;28;20136;-72
2023/10/21 10:02:14;;;;;;;2.53;1.67;;;;;17.50;96859.00;;;;5018516;28;20053;-68
2023/10/21 10:04:41;;;;;;;5.20;1.63;;;;;17.50;96850.00;;;;5033438;28;20042;-65
2023/10/21 10:07:07;;;;;;;3.70;1.55;;;;;17.60;96853.00;;;;5033518;28;20788;-68
2023/10/21 10:09:44;;;;;;;4.85;1.73;;;;;17.60;96856.00;;;;5033869;28;20115;-68
2023/10/21 10:12:35;;;;;;;2.17;0.90;;;;;17.50;96853.00;;;;5033639;28;20050;-68
2023/10/21 10:15:31;;;;;;;4.97;1.83;;;;;17.40;96853.00;;;;5032686;28;20498;-67
2023/10/21 10:18:03;;;;;;;3.42;2.10;;;;;17.40;96862.00;;;;5034242;28;20469;-66
2023/10/21 10:20:31;;;;;;;5.68;1.38;;;;;17.40;96857.00;;;;5033163;28;20073;-67
2023/10/21 10:23:07;;;;;;;4.28;1.30;;;;;17.40;96860.00;;;;5034584;28;20103;-66
2023/10/21 10:25:41;;;;;;;4.03;0.90;;;;;17.40;96860.00;;;;5034235;28;20107;-66
2023/10/21 10:28:19;;;;;;;3.25;1.20;;;;;17.40;96862.00;;;;5034624;28;20052;-64
2023/10/21 10:30:49;;;;;;;5.35;1.05;;;;;17.30;96853.00;;;;5035022;28;20049;-65
2023/10/21 10:33:23;;;;;;;4.07;0.90;;;;;17.30;96859.00;;;;5033492;28;20079;-65
2023/10/21 10:35:53;;;;;;;;;;;;;17.30;96860.00;;;;5035430;28;20128;-66
2023/10/21 10:38:24;;;;;;;4.45;1.75;;;;;17.30;96869.00;;;;5034026;28;19921;-65
2023/10/21 10:41:07;;;;;;;2.90;0.70;;;;;17.20;96861.00;;;;5035831;28;20041;-66
2023/10/21 10:43:43;;;;;;;6.93;1.40;;;;;17.10;96873.00;;;;5033931;28;20047;-65
2023/10/21 10:46:11;;;;;;;3.28;0.70;;;;;17.00;96870.00;;;;5035105;28;20453;-65
2023/10/21 10:48:39;;;;;;;4.10;1.02;;;;;17.10;96871.00;;;;5035006;28;20388;-65
2023/10/21 10:51:19;;;;;;;4.13;1.25;;;;;17.20;96870.00;;;;5035568;28;20041;-66
2023/10/21 10:53:46;;;;;;;3.33;1.40;;;;;17.20;96875.00;;;;5035559;28;20038;-66
2023/10/21 10:56:19;;;;;;;5.07;0.98;;;;;17.20;96870.00;;;;5034385;28;20049;-65
2023/10/21 10:58:47;;;;;;;2.10;1.00;;;;;17.30;96877.00;;;;5037606;28;20128;-64
2023/10/21 11:01:27;;;;;;;5.03;1.42;;;;;17.40;96882.00;;;;5051764;28;20056;-67
2023/10/21 11:03:56;;;;;;;6.50;1.20;;;;;17.40;96877.00;;;;5054647;28;20469;-66
2023/10/21 11:06:31;;;;;;;2.75;0.93;;;;;17.40;96878.00;;;;5055944;28;20083;-66
2023/10/21 11:08:59;;;;;;;3.38;0.80;;;;;17.60;96865.00;;;;5054974;28;20053;-67
2023/10/21 11:11:27;;;;;;;4.30;1.05;;;;;17.90;96870.00;;;;5054687;28;20049;-64
2023/10/21 11:13:54;;;;;;;3.80;0.90;;;;;18.00;96870.00;;;;5056076;28;20041;-67
2023/10/21 11:16:21;;;;;;;2.47;0.98;;;;;17.90;96872.00;;;;5055423;28;20053;-65
2023/10/21 11:18:49;;;;;;;4.97;1.25;;;;;17.80;96872.00;;;;5055417;28;20064;-66
2023/10/21 11:21:15;;;;;;;4.43;1.10;;;;;17.70;96875.00;;;;5054347;28;20061;-65
2023/10/21 11:23:43;;;;;;;3.58;0.98;;;;;17.70;96874.00;;;;5055519;28;20048;-65
2023/10/21 11:26:11;;;;;;;4.90;1.60;;;;;17.60;96877.00;;;;5056285;28;20037;-68
2023/10/21 11:28:38;;;;;;;2.03;0.90;;;;;17.60;96872.00;;;;5056224;28;20037;-67
2023/10/21 11:31:08;;;;;;;5.93;2.22;;;;;17.70;96868.00;;;;5055330;28;20052;-65
2023/10/21 11:33:35;;;;;;;5.15;1.95;;;;;17.80;96870.00;;;;5055053;28;20044;-68
2023/10/21 11:36:03;;;;;;;6.60;1.90;;;;;18.00;96858.00;;;;5056932;28;20031;-67
2023/10/21 11:38:30;;;;;;;4.13;1.40;;;;;18.10;96860.00;;;;5052235;28;20105;-67
2023/10/21 11:40:56;;;;;;;3.58;1.83;;;;;18.30;96878.00;;;;5055404;28;20060;-68
2023/10/21 11:43:27;;;;;;;4.45;1.17;;;;;18.50;96871.00;;;;5055806;28;20076;-65
2023/10/21 11:45:56;;;;;;;1.48;0.80;;;;;18.70;96867.00;;;;5056926;28;20021;-67
2023/10/21 11:48:24;;;;;;;4.80;1.27;;;;;18.80;96875.00;;;;5056584;28;20053;-63
2023/10/21 11:50:51;;;;;;;3.03;0.70;;;;;19.00;96882.00;;;;5028141;28;20048;-66
2023/10/21 11:53:19;;;;;;;3.67;0.90;;;;;19.00;96878.00;;;;5041731;28;20053;-67
2023/10/21 12:24:00;;;;;;;2.60;0.95;;;;;19.30;96877.00;;;;5044080;28;20050;-67
2023/10/21 12:39:56;;;;;;;3.10;1.10;;;;;19.10;96880.00;;;;5032730;28;20406;-66
2023/10/21 12:42:29;;;;;;;6.40;1.40;;;;;19.10;96880.00;;;;5031067;28;20052;-67
2023/10/21 12:45:01;;;;;;;3.30;1.00;;;;;19.20;96890.00;;;;5031687;28;20097;-66
2023/10/21 12:47:28;;;;;;;1.90;0.80;;;;;19.30;96897.00;;;;5032415;28;20042;-65
2023/10/21 12:49:57;;;;;;;3.55;0.95;;;;;19.40;96900.00;;;;5032016;28;20050;-66
2023/10/21 12:52:24;;;;;;;4.47;1.42;;;;;19.40;96896.00;;;;5031018;28;20653;-66
2023/10/21 12:54:51;;;;;;;3.70;1.30;;;;;19.60;96899.00;;;;5031090;28;20041;-67
2023/10/21 12:57:18;;;;;;;2.22;0.93;;;;;19.70;96903.00;;;;5031790;28;20046;-67
2023/10/21 12:59:46;;;;;;;2.33;0.90;;;;;19.70;96905.00;;;;5031122;28;20045;-67
2023/10/21 13:02:13;;;;;;;3.10;0.80;;;;;19.70;96915.00;;;;5032095;28;20396;-66
2023/10/21 13:04:40;;;;;;;4.78;0.98;;;;;19.90;96911.00;;;;5031105;28;20053;-65